createdAt,value
2019-05-20T00:00:36.125Z,96.64
2019-05-20T00:03:06.964Z,96.88
2019-05-20T00:05:37.717Z,97.16
2019-05-20T00:08:08.435Z,96.94
2019-05-20T00:10:39.121Z,96.95
2019-05-20T00:13:09.813Z,96.99
2019-05-20T00:15:40.517Z,96.70
2019-05-20T00:18:11.217Z,96.48
2019-05-20T00:20:41.954Z,96.82
2019-05-20T00:23:12.556Z,97.03
2019-05-20T00:25:43.227Z,97.55
2019-05-20T00:28:13.753Z,97.65
2019-05-20T00:30:44.426Z,97.64
2019-05-20T00:33:15.096Z,97.83
2019-05-20T00:35:45.724Z,97.77
2019-05-20T00:38:16.196Z,98.01
2019-05-20T00:40:46.816Z,97.97
2019-05-20T00:43:17.468Z,98.11
2019-05-20T00:45:48.157Z,98.71
2019-05-20T00:48:18.798Z,99.28
2019-05-20T00:50:49.459Z,99.93
2019-05-20T00:53:20.086Z,100.00
2019-05-20T00:55:50.756Z,100.00
2019-05-20T00:58:21.514Z,100.00
2019-05-20T01:00:52.166Z,100.00
2019-05-20T01:03:22.863Z,100.00
2019-05-20T01:05:53.587Z,100.00
2019-05-20T01:08:24.223Z,100.00
2019-05-20T01:10:55.026Z,100.00
2019-05-20T01:13:25.653Z,100.00
2019-05-20T01:15:56.303Z,100.00
2019-05-20T01:18:27.003Z,100.00
2019-05-20T01:20:59.233Z,100.00
2019-05-20T01:23:29.867Z,100.00
2019-05-20T01:26:00.526Z,100.00
2019-05-20T01:28:31.168Z,100.00
2019-05-20T01:31:01.792Z,100.00
2019-05-20T01:33:32.416Z,100.00
2019-05-20T01:36:03.009Z,100.00
2019-05-20T01:38:33.684Z,100.00
2019-05-20T01:41:04.300Z,100.00
2019-05-20T01:43:34.838Z,100.00
2019-05-20T01:46:05.522Z,100.00
2019-05-20T01:48:36.096Z,100.00
2019-05-20T01:51:06.782Z,100.00
2019-05-20T01:53:37.329Z,100.00
2019-05-20T01:56:07.984Z,100.00
2019-05-20T01:58:39.767Z,100.00
2019-05-20T02:01:10.603Z,100.00
2019-05-20T02:03:41.226Z,100.00
2019-05-20T02:06:11.903Z,100.00
2019-05-20T02:08:42.517Z,100.00
2019-05-20T02:11:13.233Z,100.00
2019-05-20T02:14:02.766Z,100.00
2019-05-20T02:16:33.459Z,100.00
2019-05-20T02:19:04.168Z,100.00
2019-05-20T02:21:35.163Z,100.00
2019-05-20T02:24:06.243Z,100.00
2019-05-20T02:26:36.929Z,100.00
2019-05-20T02:29:07.527Z,100.00
2019-05-20T02:31:38.270Z,100.00
2019-05-20T02:34:08.972Z,100.00
2019-05-20T02:36:39.534Z,100.00
2019-05-20T02:39:10.299Z,100.00
2019-05-20T02:41:41.006Z,100.00
2019-05-20T02:44:11.613Z,100.00
2019-05-20T02:46:42.237Z,100.00
2019-05-20T02:49:12.968Z,100.00
2019-05-20T02:51:43.604Z,100.00
2019-05-20T02:54:14.214Z,99.80
2019-05-20T02:56:44.826Z,99.90
2019-05-20T02:59:15.509Z,99.58
2019-05-20T03:01:46.194Z,98.13
2019-05-20T03:04:16.909Z,97.31
2019-05-20T03:06:47.570Z,96.17
2019-05-20T03:09:18.080Z,95.17
2019-05-20T03:11:48.738Z,94.17
2019-05-20T03:14:20.953Z,94.00
2019-05-20T03:16:51.584Z,93.66
2019-05-20T03:19:22.132Z,93.56
2019-05-20T03:21:52.879Z,93.32
2019-05-20T03:24:23.438Z,93.04
2019-05-20T03:26:54.214Z,93.30
2019-05-20T03:29:25.200Z,93.80
2019-05-20T03:31:55.795Z,93.95
2019-05-20T03:34:45.684Z,94.10
2019-05-20T03:36:58.833Z,94.46
2019-05-20T03:39:29.625Z,94.75
2019-05-20T03:42:00.296Z,95.02
2019-05-20T03:44:31.057Z,95.42
2019-05-20T03:47:01.654Z,95.59
2019-05-20T03:49:32.664Z,95.93
2019-05-20T03:52:03.225Z,95.43
2019-05-20T03:54:33.909Z,95.12
2019-05-20T03:57:04.576Z,95.06
2019-05-20T03:59:35.221Z,94.50
2019-05-20T04:02:05.890Z,94.46
2019-05-20T04:04:36.622Z,94.27
2019-05-20T04:07:07.263Z,93.27
2019-05-20T04:09:38.017Z,91.44
2019-05-20T04:12:08.636Z,90.49
2019-05-20T04:14:39.362Z,89.27
2019-05-20T04:17:10.047Z,88.29
2019-05-20T04:19:40.818Z,87.39
2019-05-20T04:22:11.355Z,87.47
2019-05-20T04:24:42.456Z,86.86
2019-05-20T04:27:13.205Z,87.50
2019-05-20T04:29:44.241Z,87.11
2019-05-20T04:32:15.019Z,85.38
2019-05-20T04:34:45.737Z,84.87
2019-05-20T04:37:16.474Z,83.74
2019-05-20T04:39:47.108Z,84.93
2019-05-20T04:42:17.927Z,85.11
2019-05-20T04:44:48.936Z,84.76
2019-05-20T04:47:19.647Z,84.11
2019-05-20T04:49:50.342Z,84.03
2019-05-20T04:52:21.215Z,83.56
2019-05-20T04:54:51.896Z,82.91
2019-05-20T04:57:33.839Z,81.88
2019-05-20T05:00:05.536Z,81.04
2019-05-20T05:02:36.444Z,78.71
2019-05-20T05:05:07.838Z,75.08
2019-05-20T05:07:38.946Z,75.10
2019-05-20T05:10:12.246Z,75.42
2019-05-20T05:12:43.002Z,74.91
2019-05-20T05:15:15.018Z,72.69
2019-05-20T05:17:45.706Z,71.66
2019-05-20T05:20:18.509Z,67.43
2019-05-20T05:22:48.810Z,64.95
2019-05-20T05:25:19.567Z,66.22
2019-05-20T05:27:50.351Z,70.04
2019-05-20T05:30:21.009Z,71.70
2019-05-20T05:32:51.518Z,72.36
2019-05-20T05:35:22.243Z,72.69
2019-05-20T05:37:52.893Z,74.41
2019-05-20T05:40:30.006Z,75.38
2019-05-20T05:43:00.857Z,77.02
2019-05-20T05:45:33.355Z,77.46
2019-05-20T05:48:04.025Z,78.62
2019-05-20T05:50:34.718Z,79.56
2019-05-20T05:53:05.574Z,80.34
2019-05-20T05:55:36.540Z,81.50
2019-05-20T05:58:08.808Z,82.95
2019-05-20T06:00:39.643Z,83.14
2019-05-20T06:03:10.424Z,84.33
2019-05-20T06:05:41.137Z,85.51
2019-05-20T06:08:12.091Z,86.13
2019-05-20T06:10:42.706Z,86.35
2019-05-20T06:13:13.528Z,88.26
2019-05-20T06:15:44.944Z,89.02
2019-05-20T06:18:15.564Z,89.37
2019-05-20T06:20:46.801Z,90.36
2019-05-20T06:23:17.792Z,90.84
2019-05-20T06:25:48.477Z,91.30
2019-05-20T06:28:19.047Z,91.19
2019-05-20T06:30:53.588Z,90.96
2019-05-20T06:33:24.498Z,90.57
2019-05-20T06:35:55.447Z,89.78
2019-05-20T06:38:45.379Z,90.38
2019-05-20T06:41:17.629Z,89.81
2019-05-20T06:43:48.756Z,89.90
2019-05-20T06:46:19.622Z,90.40
2019-05-20T06:48:50.734Z,91.70
2019-05-20T06:51:22.048Z,92.32
2019-05-20T06:53:52.575Z,90.79
2019-05-20T06:56:23.348Z,89.57
2019-05-20T06:58:54.169Z,89.36
2019-05-20T07:01:24.899Z,89.48
2019-05-20T07:03:55.503Z,90.16
2019-05-20T07:06:42.815Z,89.98
2019-05-20T07:08:58.750Z,89.82
2019-05-20T07:11:29.392Z,89.98
2019-05-20T07:14:00.096Z,90.47
2019-05-20T07:16:30.835Z,90.44
2019-05-20T07:19:03.182Z,89.51
2019-05-20T07:21:34.620Z,89.41
2019-05-20T07:24:05.467Z,89.11
2019-05-20T07:26:36.105Z,89.19
2019-05-20T07:29:06.927Z,89.77
2019-05-20T07:31:37.970Z,89.83
2019-05-20T07:34:08.716Z,89.17
2019-05-20T07:36:39.783Z,89.87
2019-05-20T07:39:10.399Z,87.29
2019-05-20T07:41:41.942Z,85.87
2019-05-20T07:44:12.821Z,83.53
2019-05-20T07:46:43.555Z,85.20
2019-05-20T07:49:14.307Z,84.96
2019-05-20T07:51:46.624Z,85.73
2019-05-20T07:54:18.459Z,85.68
2019-05-20T07:56:51.028Z,84.81
2019-05-20T07:59:25.339Z,86.00
2019-05-20T08:01:56.244Z,85.67
2019-05-20T08:04:26.905Z,85.68
2019-05-20T08:06:57.658Z,85.58
2019-05-20T08:09:28.302Z,85.06
2019-05-20T08:11:59.001Z,83.73
2019-05-20T08:14:29.785Z,82.55
2019-05-20T08:17:00.444Z,81.59
2019-05-20T08:19:31.030Z,81.94
2019-05-20T08:22:01.786Z,80.82
2019-05-20T08:24:32.607Z,81.55
2019-05-20T08:27:03.558Z,81.80
2019-05-20T08:29:34.315Z,82.60
2019-05-20T08:32:05.121Z,81.14
2019-05-20T08:34:36.413Z,80.84
2019-05-20T08:37:07.832Z,78.46
2019-05-20T08:39:38.557Z,77.19
2019-05-20T08:42:09.264Z,75.72
2019-05-20T08:44:41.072Z,74.24
2019-05-20T08:47:11.890Z,75.10
2019-05-20T08:49:43.313Z,77.13
2019-05-20T08:52:14.531Z,79.73
2019-05-20T08:54:45.241Z,81.56
2019-05-20T08:57:16.036Z,83.87
2019-05-20T08:59:46.797Z,85.46
2019-05-20T09:02:17.726Z,86.00
2019-05-20T09:04:48.497Z,86.73
2019-05-20T09:07:19.342Z,86.93
2019-05-20T09:09:50.042Z,87.24
2019-05-20T09:12:20.671Z,88.23
2019-05-20T09:14:51.476Z,87.65
2019-05-20T09:17:22.214Z,87.54
2019-05-20T09:19:52.944Z,87.34
2019-05-20T09:22:23.734Z,87.28
2019-05-20T09:24:54.548Z,87.22
2019-05-20T09:27:25.393Z,87.19
2019-05-20T09:29:56.239Z,86.79
2019-05-20T09:32:27.034Z,87.60
2019-05-20T09:34:57.938Z,87.92
2019-05-20T09:37:28.850Z,88.67
2019-05-20T09:39:59.579Z,88.11
2019-05-20T09:42:30.471Z,89.23
2019-05-20T09:45:03.133Z,89.95
2019-05-20T09:47:33.435Z,90.85
2019-05-20T09:50:04.232Z,92.13
2019-05-20T09:52:35.076Z,92.70
2019-05-20T09:55:06.733Z,92.70
2019-05-20T09:57:37.398Z,92.96
2019-05-20T10:00:10.501Z,93.46
2019-05-20T10:02:41.338Z,93.91
2019-05-20T10:05:12.018Z,94.63
2019-05-20T10:07:43.239Z,95.50
2019-05-20T10:10:14.071Z,96.23
2019-05-20T10:12:46.849Z,96.91
2019-05-20T10:15:17.440Z,96.86
2019-05-20T10:17:48.264Z,97.04
2019-05-20T10:20:19.997Z,97.36
2019-05-20T10:22:50.728Z,97.58
2019-05-20T10:25:21.606Z,97.71
2019-05-20T10:27:52.382Z,97.42
2019-05-20T10:30:23.304Z,97.27
2019-05-20T10:32:54.074Z,96.67
2019-05-20T10:35:24.746Z,93.78
2019-05-20T10:37:55.429Z,90.31
2019-05-20T10:40:26.243Z,86.57
2019-05-20T10:42:56.853Z,82.06
2019-05-20T10:45:27.909Z,79.38
2019-05-20T10:47:58.610Z,77.11
2019-05-20T10:50:29.308Z,78.91
2019-05-20T10:52:59.981Z,80.18
2019-05-20T10:55:30.810Z,81.16
2019-05-20T10:58:01.414Z,82.77
2019-05-20T11:00:32.345Z,83.60
2019-05-20T11:03:03.185Z,80.92
2019-05-20T11:05:34.358Z,79.61
2019-05-20T11:08:04.976Z,79.03
2019-05-20T11:10:35.788Z,78.11
2019-05-20T11:13:06.531Z,76.04
2019-05-20T11:15:37.212Z,74.33
2019-05-20T11:18:07.993Z,73.61
2019-05-20T11:20:38.874Z,72.34
2019-05-20T11:23:09.572Z,71.52
2019-05-20T11:25:40.362Z,72.82
2019-05-20T11:28:11.959Z,72.91
2019-05-20T11:30:42.997Z,71.78
2019-05-20T11:33:13.647Z,71.74
2019-05-20T11:35:44.375Z,71.38
2019-05-20T11:38:15.225Z,70.27
2019-05-20T11:40:46.918Z,69.08
2019-05-20T11:43:17.394Z,71.38
2019-05-20T11:45:48.107Z,72.63
2019-05-20T11:48:18.878Z,72.84
2019-05-20T11:50:49.551Z,73.15
2019-05-20T11:53:21.689Z,72.44
2019-05-20T11:55:53.379Z,74.04
2019-05-20T11:58:23.857Z,75.73
2019-05-20T12:00:54.472Z,75.45
2019-05-20T12:03:25.178Z,72.53
2019-05-20T12:05:55.998Z,72.41
2019-05-20T12:08:27.026Z,72.91
2019-05-20T12:10:57.733Z,72.81
2019-05-20T12:13:28.856Z,72.28
2019-05-20T12:15:59.496Z,72.35
2019-05-20T12:18:30.297Z,70.12
2019-05-20T12:21:00.951Z,70.94
2019-05-20T12:23:31.593Z,69.06
2019-05-20T12:26:02.211Z,66.28
2019-05-20T12:28:32.846Z,65.54
2019-05-20T12:31:03.628Z,64.06
2019-05-20T12:33:34.450Z,64.71
2019-05-20T12:36:05.555Z,64.18
2019-05-20T12:38:36.217Z,64.99
2019-05-20T12:41:06.983Z,65.97
2019-05-20T12:43:37.721Z,65.65
2019-05-20T12:46:08.526Z,65.84
2019-05-20T12:48:39.249Z,66.73
2019-05-20T12:51:09.967Z,63.38
2019-05-20T12:53:40.566Z,64.96
2019-05-20T12:56:11.368Z,67.25
2019-05-20T12:58:42.071Z,66.50
2019-05-20T13:01:12.780Z,67.83
2019-05-20T13:03:43.647Z,66.92
2019-05-20T13:06:14.313Z,66.89
2019-05-20T13:08:44.865Z,67.80
2019-05-20T13:11:15.651Z,65.97
2019-05-20T13:13:47.504Z,66.15
2019-05-20T13:16:18.224Z,66.19
2019-05-20T13:18:56.161Z,66.00
2019-05-20T13:21:21.225Z,65.91
2019-05-20T13:23:51.968Z,64.34
2019-05-20T13:26:22.635Z,65.93
2019-05-20T13:28:54.352Z,62.66
2019-05-20T13:31:25.144Z,62.47
2019-05-20T13:33:55.906Z,60.34
2019-05-20T13:36:26.675Z,61.20
2019-05-20T13:38:57.416Z,61.25
2019-05-20T13:41:29.343Z,58.58
2019-05-20T13:44:10.536Z,59.53
2019-05-20T13:46:41.174Z,57.29
2019-05-20T13:49:14.671Z,58.35
2019-05-20T13:51:50.517Z,58.36
2019-05-20T13:54:23.266Z,57.35
2019-05-20T13:56:53.888Z,57.17
2019-05-20T13:59:24.596Z,57.03
2019-05-20T14:01:55.287Z,57.91
2019-05-20T14:04:25.998Z,56.57
2019-05-20T14:06:58.185Z,57.14
2019-05-20T14:09:28.929Z,58.09
2019-05-20T14:11:59.692Z,56.15
2019-05-20T14:14:30.294Z,57.03
2019-05-20T14:17:00.936Z,57.15
2019-05-20T14:19:32.694Z,56.68
2019-05-20T14:22:03.443Z,56.25
2019-05-20T14:24:34.204Z,57.10
2019-05-20T14:27:06.157Z,55.16
2019-05-20T14:29:40.461Z,53.30
2019-05-20T14:32:12.209Z,56.67
2019-05-20T14:34:42.962Z,57.27
2019-05-20T14:37:14.862Z,55.34
2019-05-20T14:39:46.778Z,54.12
2019-05-20T14:42:17.960Z,55.25
2019-05-20T14:44:48.713Z,52.13
2019-05-20T14:47:19.401Z,52.38
2019-05-20T14:49:50.248Z,52.78
2019-05-20T14:52:20.933Z,52.31
2019-05-20T14:54:51.669Z,53.52
2019-05-20T14:57:22.547Z,50.52
2019-05-20T14:59:53.425Z,51.10
2019-05-20T15:02:25.253Z,49.86
2019-05-20T15:04:55.977Z,50.44
2019-05-20T15:07:30.292Z,48.23
2019-05-20T15:09:59.390Z,51.53
2019-05-20T15:12:30.513Z,51.86
2019-05-20T15:15:01.330Z,52.96
2019-05-20T15:17:32.084Z,53.10
2019-05-20T15:20:02.942Z,53.45
2019-05-20T15:22:33.793Z,53.68
2019-05-20T15:25:04.907Z,53.97
2019-05-20T15:27:35.892Z,55.44
2019-05-20T15:30:09.441Z,54.81
2019-05-20T15:32:41.266Z,56.08
2019-05-20T15:35:15.139Z,55.88
2019-05-20T15:37:45.896Z,54.98
2019-05-20T15:40:24.099Z,55.29
2019-05-20T15:42:52.657Z,54.38
2019-05-20T15:45:23.542Z,52.84
2019-05-20T15:47:54.267Z,53.39
2019-05-20T15:50:25.135Z,53.32
2019-05-20T15:52:55.844Z,54.23
2019-05-20T15:55:26.558Z,55.13
2019-05-20T15:57:57.358Z,54.44
2019-05-20T16:00:28.075Z,53.06
2019-05-20T16:02:58.917Z,53.58
2019-05-20T16:05:29.707Z,55.50
2019-05-20T16:08:00.526Z,54.61
2019-05-20T16:10:32.271Z,54.57
2019-05-20T16:13:03.078Z,53.74
2019-05-20T16:15:33.876Z,54.89
2019-05-20T16:18:04.578Z,54.87
2019-05-20T16:20:36.504Z,54.21
2019-05-20T16:23:07.177Z,55.87
2019-05-20T16:25:40.922Z,56.26
2019-05-20T16:28:11.994Z,55.77
2019-05-20T16:30:42.728Z,55.41
2019-05-20T16:33:13.690Z,55.28
2019-05-20T16:35:45.556Z,55.24
2019-05-20T16:38:19.847Z,55.91
2019-05-20T16:40:51.911Z,54.21
2019-05-20T16:43:22.637Z,52.79
2019-05-20T16:45:53.329Z,53.59
2019-05-20T16:48:23.941Z,52.41
2019-05-20T16:50:54.801Z,52.82
2019-05-20T16:53:28.657Z,53.87
2019-05-20T16:56:00.001Z,53.68
2019-05-20T16:58:31.704Z,54.40
2019-05-20T17:01:02.492Z,53.81
2019-05-20T17:03:33.292Z,53.51
2019-05-20T17:06:06.153Z,53.48
2019-05-20T17:08:37.038Z,54.61
2019-05-20T17:11:11.412Z,56.33
2019-05-20T17:13:44.224Z,55.61
2019-05-20T17:16:14.957Z,55.25
2019-05-20T17:18:46.892Z,57.44
2019-05-20T17:21:19.985Z,57.23
2019-05-20T17:23:50.928Z,56.50
2019-05-20T17:26:21.812Z,57.62
2019-05-20T17:28:53.647Z,58.25
2019-05-20T17:31:30.649Z,58.27
2019-05-20T17:34:00.254Z,59.35
2019-05-20T17:36:32.451Z,57.31
2019-05-20T17:39:06.801Z,58.81
2019-05-20T17:41:37.640Z,57.76
2019-05-20T17:44:11.368Z,58.52
2019-05-20T17:46:43.202Z,58.68
2019-05-20T17:49:14.126Z,58.75
2019-05-20T17:51:49.163Z,60.83
2019-05-20T17:54:24.686Z,60.23
2019-05-20T17:56:57.953Z,60.01
2019-05-20T17:59:30.065Z,59.46
2019-05-20T18:02:01.884Z,60.45
2019-05-20T18:04:34.638Z,59.85
2019-05-20T18:07:05.422Z,60.86
2019-05-20T18:09:38.034Z,61.90
2019-05-20T18:12:09.964Z,61.87
2019-05-20T18:14:45.878Z,62.97
2019-05-20T18:17:24.140Z,63.82
2019-05-20T18:19:59.645Z,64.35
2019-05-20T18:22:31.510Z,65.03
2019-05-20T18:25:03.522Z,65.71
2019-05-20T18:27:37.822Z,65.81
2019-05-20T18:30:12.461Z,66.22
2019-05-20T18:32:46.808Z,66.63
2019-05-20T18:35:17.856Z,67.50
2019-05-20T18:37:48.649Z,67.85
2019-05-20T18:40:21.777Z,68.60
2019-05-20T18:42:54.812Z,68.65
2019-05-20T18:45:28.298Z,68.78
2019-05-20T18:48:00.945Z,68.61
2019-05-20T18:50:33.802Z,69.39
2019-05-20T18:53:04.552Z,69.16
2019-05-20T18:55:36.327Z,68.54
2019-05-20T18:58:11.896Z,68.31
2019-05-20T19:00:43.875Z,68.13
2019-05-20T19:03:28.784Z,68.97
2019-05-20T19:05:59.943Z,69.14
2019-05-20T19:08:32.246Z,69.01
2019-05-20T19:11:03.105Z,68.83
2019-05-20T19:13:39.422Z,69.02
2019-05-20T19:16:12.718Z,69.29
2019-05-20T19:18:50.143Z,69.85
2019-05-20T19:21:26.338Z,70.13
2019-05-20T19:23:59.635Z,69.48
2019-05-20T19:26:35.031Z,69.92
2019-05-20T19:29:05.882Z,69.95
2019-05-20T19:31:40.527Z,70.42
2019-05-20T19:34:13.872Z,70.47
2019-05-20T19:36:50.379Z,71.35
2019-05-20T19:39:21.474Z,71.32
2019-05-20T19:41:53.927Z,72.11
2019-05-20T19:44:27.289Z,72.00
2019-05-20T19:47:02.501Z,72.17
2019-05-20T19:49:33.754Z,71.86
2019-05-20T19:52:07.055Z,72.11
2019-05-20T19:54:39.033Z,72.75
2019-05-20T19:57:13.147Z,72.93
2019-05-20T19:59:44.028Z,72.82
2019-05-20T20:02:17.752Z,72.81
2019-05-20T20:04:53.627Z,72.89
2019-05-20T20:07:28.849Z,72.49
2019-05-20T20:09:59.893Z,71.90
2019-05-20T20:12:31.886Z,71.89
2019-05-20T20:15:03.766Z,71.25
2019-05-20T20:17:34.613Z,71.63
2019-05-20T20:20:09.568Z,71.97
2019-05-20T20:22:45.646Z,72.10
2019-05-20T20:25:18.932Z,72.52
2019-05-20T20:27:58.568Z,72.74
2019-05-20T20:30:31.576Z,72.19
2019-05-20T20:33:04.107Z,71.63
2019-05-20T20:35:40.990Z,71.92
2019-05-20T20:38:11.732Z,72.04
2019-05-20T20:40:42.468Z,72.50
2019-05-20T20:43:15.901Z,72.76
2019-05-20T20:45:46.697Z,72.86
2019-05-20T20:48:17.346Z,71.80
2019-05-20T20:50:48.119Z,72.23
2019-05-20T20:53:18.934Z,72.24
2019-05-20T20:55:50.626Z,72.41
2019-05-20T20:58:25.585Z,72.68
2019-05-20T21:00:56.812Z,72.93
2019-05-20T21:03:27.588Z,72.79
2019-05-20T21:06:02.392Z,72.70
2019-05-20T21:08:33.127Z,72.28
2019-05-20T21:11:04.033Z,72.06
2019-05-20T21:13:34.687Z,72.32
2019-05-20T21:16:05.411Z,72.72
2019-05-20T21:18:35.972Z,73.30
2019-05-20T21:21:06.617Z,73.48
2019-05-20T21:23:38.126Z,74.01
2019-05-20T21:26:09.247Z,74.30
2019-05-20T21:28:39.823Z,75.00
2019-05-20T21:31:10.642Z,75.75
2019-05-20T21:33:41.339Z,76.11
2019-05-20T21:36:11.889Z,76.92
2019-05-20T21:38:42.763Z,77.35
2019-05-20T21:41:13.487Z,77.73
2019-05-20T21:43:44.133Z,77.63
2019-05-20T21:46:14.687Z,77.46
2019-05-20T21:48:45.257Z,77.28
2019-05-20T21:51:15.855Z,77.05
2019-05-20T21:53:46.487Z,77.34
2019-05-20T21:56:17.207Z,77.73
2019-05-20T21:58:47.799Z,77.47
2019-05-20T22:01:18.522Z,77.12
2019-05-20T22:03:49.101Z,76.79
2019-05-20T22:06:19.782Z,77.43
2019-05-20T22:08:50.296Z,77.75
2019-05-20T22:11:20.937Z,78.42
2019-05-20T22:13:51.383Z,78.94
2019-05-20T22:16:22.137Z,79.69
2019-05-20T22:18:53.352Z,79.99
2019-05-20T22:21:28.691Z,80.27
2019-05-20T22:24:05.505Z,80.08
2019-05-20T22:26:36.758Z,79.45
2019-05-20T22:29:08.021Z,79.34
2019-05-20T22:31:39.306Z,79.58
2019-05-20T22:34:10.657Z,79.38
2019-05-20T22:36:43.406Z,79.50
2019-05-20T22:39:14.709Z,79.17
2019-05-20T22:41:46.060Z,78.79
2019-05-20T22:44:17.376Z,78.85
2019-05-20T22:46:48.906Z,79.09
2019-05-20T22:49:20.205Z,79.04
2019-05-20T22:51:51.409Z,79.37
2019-05-20T22:54:22.821Z,79.26
2019-05-20T22:56:54.083Z,79.36
2019-05-20T22:59:25.349Z,79.57
2019-05-20T23:01:56.821Z,79.60
2019-05-20T23:04:28.080Z,79.95
2019-05-20T23:06:59.409Z,80.03
2019-05-20T23:09:31.019Z,80.04
2019-05-20T23:12:02.384Z,79.95
2019-05-20T23:14:33.696Z,80.12
2019-05-20T23:17:04.993Z,80.59
2019-05-20T23:19:36.306Z,81.22
2019-05-20T23:22:07.872Z,81.72
2019-05-20T23:24:39.145Z,81.93
2019-05-20T23:27:10.505Z,82.44
2019-05-20T23:29:41.814Z,81.97
2019-05-20T23:32:13.172Z,82.29
2019-05-20T23:34:44.378Z,82.66
2019-05-20T23:37:15.801Z,83.28
2019-05-20T23:39:46.982Z,83.73
2019-05-20T23:42:18.531Z,84.18
2019-05-20T23:44:49.837Z,84.94
2019-05-20T23:47:21.160Z,85.32
2019-05-20T23:49:52.556Z,85.44
2019-05-20T23:52:23.772Z,85.79
2019-05-20T23:54:55.061Z,86.06
2019-05-20T23:57:26.375Z,86.28
2019-05-20T23:59:57.722Z,86.40
